Time;durP1;ratioP1;P1;durP2;ratioP2;P2;SDS_P1;SDS_P2;PMS_P1;PMS_P2;Temp;Humidity;BMP_temperature;BMP_pressure;BME280_temperature;BME280_humidity;BME280_pressure;Samples;Min_cycle;Max_cycle;Signal;HPM_P1;HPM_P2
2022/02/13 00:00:36;;;;;;;;;;;19.10;32.00;;;;;;5078871;28;19980;-64
2022/02/13 00:03:01;;;;;;;;;;;19.10;32.00;;;;;;5097029;28;19920;-64
2022/02/13 00:05:28;;;;;;;;;;;19.10;31.90;;;;;;5097120;28;19915;-64
2022/02/13 00:07:53;;;;;;;;;;;19.10;31.90;;;;;;5096995;28;19955;-64
2022/02/13 00:10:19;;;;;;;;;;;19.10;31.90;;;;;;5096931;28;19947;-64
2022/02/13 00:12:44;;;;;;;;;;;19.10;32.00;;;;;;5096995;28;20010;-64
2022/02/13 00:15:10;;;;;;;;;;;19.10;32.00;;;;;;5097086;28;19913;-64
2022/02/13 00:17:35;;;;;;;;;;;19.10;31.90;;;;;;5096834;28;19919;-64
2022/02/13 00:20:02;;;;;;;;;;;19.10;31.90;;;;;;5096972;28;20321;-64
2022/02/13 00:22:28;;;;;;;;;;;19.10;32.00;;;;;;5096666;28;19938;-64
2022/02/13 00:24:54;;;;;;;;;;;19.10;32.00;;;;;;5096718;28;20359;-64
2022/02/13 00:27:19;;;;;;;;;;;19.10;31.90;;;;;;5096616;28;20000;-64
2022/02/13 00:29:44;;;;;;;;;;;19.10;31.90;;;;;;5096461;28;20474;-64
2022/02/13 00:32:10;;;;;;;;;;;19.00;32.00;;;;;;5096424;28;19908;-64
2022/02/13 00:34:36;;;;;;;;;;;19.10;32.00;;;;;;5096514;28;19912;-64
2022/02/13 00:37:01;;;;;;;;;;;19.10;31.90;;;;;;5096401;28;19908;-64
2022/02/13 00:39:27;;;;;;;;;;;19.10;31.90;;;;;;5096333;28;19915;-64
2022/02/13 00:41:52;;;;;;;;;;;19.10;31.90;;;;;;5096297;28;19923;-64
2022/02/13 00:44:18;;;;;;;;;;;19.10;31.90;;;;;;5096322;28;20283;-64
2022/02/13 00:46:43;;;;;;;;;;;19.10;31.90;;;;;;5096248;28;19908;-64
2022/02/13 00:49:09;;;;;;;;;;;19.10;31.90;;;;;;5096475;28;19912;-64
2022/02/13 00:51:34;;;;;;;;;;;19.10;32.00;;;;;;5096131;28;20351;-63
2022/02/13 00:54:00;;;;;;;;;;;19.10;31.80;;;;;;5096199;28;20287;-64
2022/02/13 00:56:26;;;;;;;;;;;19.10;31.90;;;;;;5096048;28;19912;-64
2022/02/13 00:58:52;;;;;;;;;;;19.00;31.90;;;;;;5096112;28;19908;-64
2022/02/13 01:01:17;;;;;;;;;;;19.10;32.00;;;;;;5095768;28;20017;-64
2022/02/13 01:03:43;;;;;;;;;;;19.00;31.80;;;;;;5094976;28;20037;-65
2022/02/13 01:06:08;;;;;;;;;;;19.00;31.90;;;;;;5077735;28;20355;-64
2022/02/13 01:08:34;;;;;;;;;;;19.00;31.90;;;;;;5096073;28;20303;-64
2022/02/13 01:10:59;;;;;;;;;;;19.00;31.80;;;;;;5095764;28;19916;-64
2022/02/13 01:13:25;;;;;;;;;;;19.00;31.80;;;;;;5095708;28;19956;-63
2022/02/13 01:15:50;;;;;;;;;;;19.00;31.80;;;;;;5095652;28;19923;-65
2022/02/13 01:18:16;;;;;;;;;;;19.00;31.90;;;;;;5095596;28;19908;-64
2022/02/13 01:20:41;;;;;;;;;;;19.00;31.80;;;;;;5077311;28;19908;-63
2022/02/13 01:23:07;;;;;;;;;;;19.00;31.80;;;;;;5095415;28;19926;-64
2022/02/13 01:25:33;;;;;;;;;;;19.00;31.90;;;;;;5095492;28;19912;-64
2022/02/13 01:27:59;;;;;;;;;;;19.00;31.90;;;;;;5095401;28;20010;-64
2022/02/13 01:30:25;;;;;;;;;;;19.00;31.90;;;;;;5095676;28;19908;-64
2022/02/13 01:32:51;;;;;;;;;;;19.00;31.90;;;;;;5076983;28;19909;-64
2022/02/13 01:35:16;;;;;;;;;;;19.00;31.90;;;;;;5095126;28;19908;-63
2022/02/13 01:37:42;;;;;;;;;;;19.00;31.90;;;;;;5077049;28;19978;-64
2022/02/13 01:40:07;;;;;;;;;;;19.00;31.90;;;;;;5095033;28;19909;-64
2022/02/13 01:42:33;;;;;;;;;;;19.00;31.90;;;;;;5095153;28;19920;-64
2022/02/13 01:44:58;;;;;;;;;;;19.00;31.80;;;;;;5095278;28;19952;-63
2022/02/13 01:47:24;;;;;;;;;;;19.00;31.80;;;;;;5094788;28;19943;-63
2022/02/13 01:49:50;;;;;;;;;;;19.00;31.70;;;;;;5094746;28;19908;-63
2022/02/13 01:52:15;;;;;;;;;;;19.00;31.80;;;;;;5094700;28;20344;-64
2022/02/13 01:54:41;;;;;;;;;;;19.00;31.70;;;;;;5094702;28;20367;-63
2022/02/13 01:57:10;;;;;;;;;;;19.00;31.70;;;;;;5094868;28;19908;-63
2022/02/13 01:59:36;;;;;;;;;;;19.00;31.80;;;;;;5094549;28;20317;-63
2022/02/13 02:02:01;;;;;;;;;;;18.90;31.70;;;;;;5076051;28;19924;-63
2022/02/13 02:04:27;;;;;;;;;;;18.90;31.80;;;;;;5076244;28;19954;-63
2022/02/13 02:06:52;;;;;;;;;;;19.00;31.70;;;;;;5094339;28;19948;-63
2022/02/13 02:09:18;;;;;;;;;;;18.90;31.80;;;;;;5094117;28;19915;-64
2022/02/13 02:11:43;;;;;;;;;;;18.90;31.70;;;;;;5094268;28;19995;-64
2022/02/13 02:14:09;;;;;;;;;;;19.00;31.90;;;;;;5093715;28;19962;-63
2022/02/13 02:16:35;;;;;;;;;;;18.90;31.80;;;;;;5094065;28;19908;-64
2022/02/13 02:19:01;;;;;;;;;;;18.90;31.80;;;;;;5094106;28;19915;-64
2022/02/13 02:21:26;;;;;;;;;;;18.90;31.70;;;;;;5094299;28;19955;-63
2022/02/13 02:23:52;;;;;;;;;;;18.90;31.80;;;;;;5094317;28;19952;-64
2022/02/13 02:26:18;;;;;;;;;;;18.90;31.80;;;;;;5094130;28;19915;-63
2022/02/13 02:28:44;;;;;;;;;;;18.90;31.80;;;;;;5094199;28;20375;-64
2022/02/13 02:31:09;;;;;;;;;;;18.90;31.80;;;;;;5094141;28;19950;-63
2022/02/13 02:33:35;;;;;;;;;;;18.90;31.80;;;;;;5094284;28;19920;-64
2022/02/13 02:36:00;;;;;;;;;;;18.90;31.80;;;;;;5075827;28;19947;-63
2022/02/13 02:38:25;;;;;;;;;;;18.90;31.80;;;;;;5094120;28;20414;-63
2022/02/13 02:40:51;;;;;;;;;;;18.90;31.70;;;;;;5094259;28;20371;-63
2022/02/13 02:43:17;;;;;;;;;;;18.90;31.70;;;;;;5093975;28;20011;-64
2022/02/13 02:45:42;;;;;;;;;;;18.90;31.80;;;;;;5093954;28;19915;-63
2022/02/13 02:48:07;;;;;;;;;;;18.90;31.80;;;;;;5093913;28;19930;-63
2022/02/13 02:50:33;;;;;;;;;;;18.90;31.80;;;;;;5075666;28;19908;-63
2022/02/13 02:52:58;;;;;;;;;;;18.90;31.80;;;;;;5075642;28;19914;-63
2022/02/13 02:55:24;;;;;;;;;;;18.90;31.80;;;;;;5075671;28;19915;-64
2022/02/13 02:57:49;;;;;;;;;;;18.90;31.80;;;;;;5093894;28;19908;-63
2022/02/13 03:00:15;;;;;;;;;;;18.90;31.80;;;;;;5093566;28;19919;-63
2022/02/13 03:02:40;;;;;;;;;;;18.90;31.80;;;;;;5093658;28;19920;-63
2022/02/13 03:05:06;;;;;;;;;;;18.80;31.70;;;;;;5075387;28;19919;-63
2022/02/13 03:07:33;;;;;;;;;;;18.80;31.80;;;;;;5093096;28;21353;-64
2022/02/13 03:09:58;;;;;;;;;;;18.80;31.80;;;;;;5093572;28;19908;-63
2022/02/13 03:12:24;;;;;;;;;;;18.80;31.80;;;;;;5093593;28;19908;-64
2022/02/13 03:14:49;;;;;;;;;;;18.80;31.80;;;;;;5093651;28;19995;-64
2022/02/13 03:17:15;;;;;;;;;;;18.80;31.70;;;;;;5093514;28;20027;-64
2022/02/13 03:19:40;;;;;;;;;;;18.80;31.80;;;;;;5075334;28;19931;-64
2022/02/13 03:22:06;;;;;;;;;;;18.80;31.70;;;;;;5093373;28;19920;-65
2022/02/13 03:24:32;;;;;;;;;;;18.80;31.80;;;;;;5075145;28;19908;-63
2022/02/13 03:26:58;;;;;;;;;;;18.80;31.70;;;;;;5074621;28;19908;-63
2022/02/13 03:29:23;;;;;;;;;;;18.80;31.70;;;;;;5093360;28;19908;-63
2022/02/13 03:31:49;;;;;;;;;;;18.80;31.70;;;;;;5093321;28;19978;-63
2022/02/13 03:34:15;;;;;;;;;;;18.80;31.80;;;;;;5093329;28;20303;-63
2022/02/13 03:36:41;;;;;;;;;;;18.80;31.70;;;;;;5075137;28;20272;-64
2022/02/13 03:39:06;;;;;;;;;;;18.80;31.70;;;;;;5093301;28;19919;-63
2022/02/13 03:41:32;;;;;;;;;;;18.80;31.80;;;;;;5093248;28;19955;-63
2022/02/13 03:43:58;;;;;;;;;;;18.80;31.80;;;;;;5093260;28;19912;-63
2022/02/13 03:46:23;;;;;;;;;;;18.80;31.80;;;;;;5093251;28;20322;-63
2022/02/13 03:48:49;;;;;;;;;;;18.80;31.80;;;;;;5093170;28;20283;-63
2022/02/13 03:51:15;;;;;;;;;;;18.80;31.80;;;;;;5093154;28;19917;-63
2022/02/13 03:53:40;;;;;;;;;;;18.80;31.70;;;;;;5093205;28;19909;-64
2022/02/13 03:56:05;;;;;;;;;;;18.80;31.70;;;;;;5093100;28;20268;-64
2022/02/13 03:58:31;;;;;;;;;;;18.80;31.70;;;;;;5093095;28;19908;-64
2022/02/13 04:00:57;;;;;;;;;;;18.80;31.60;;;;;;5092929;28;19974;-63
2022/02/13 04:03:22;;;;;;;;;;;18.80;31.70;;;;;;5092917;28;20302;-63
2022/02/13 04:05:48;;;;;;;;;;;18.80;31.70;;;;;;5093116;28;20337;-63
2022/02/13 04:08:13;;;;;;;;;;;18.80;31.60;;;;;;5093036;28;20376;-63
2022/02/13 04:10:39;;;;;;;;;;;18.80;31.60;;;;;;5092982;28;19960;-64
2022/02/13 04:13:04;;;;;;;;;;;18.80;31.60;;;;;;5092949;28;19931;-63
2022/02/13 04:15:30;;;;;;;;;;;18.70;31.70;;;;;;5074872;28;19908;-63
2022/02/13 04:17:55;;;;;;;;;;;18.70;31.70;;;;;;5092945;28;19997;-64
2022/02/13 04:20:21;;;;;;;;;;;18.80;31.60;;;;;;5092789;28;20378;-64
2022/02/13 04:22:46;;;;;;;;;;;18.70;31.70;;;;;;5092816;28;20431;-63
2022/02/13 04:25:12;;;;;;;;;;;18.80;31.60;;;;;;5092865;28;20287;-64
2022/02/13 04:27:38;;;;;;;;;;;18.70;31.70;;;;;;5092999;28;19915;-64
2022/02/13 04:30:04;;;;;;;;;;;18.70;31.70;;;;;;5092925;28;20333;-63
2022/02/13 04:32:30;;;;;;;;;;;18.70;31.70;;;;;;5093361;28;19909;-63
2022/02/13 04:34:55;;;;;;;;;;;18.70;31.70;;;;;;5074669;28;19934;-63
2022/02/13 04:37:22;;;;;;;;;;;18.70;31.70;;;;;;5094517;28;19908;-64
2022/02/13 04:39:48;;;;;;;;;;;18.70;31.80;;;;;;5096582;28;19908;-63
2022/02/13 04:42:13;;;;;;;;;;;18.70;31.70;;;;;;5096263;28;19919;-63
2022/02/13 04:44:39;;;;;;;;;;;18.70;31.80;;;;;;5096329;28;19915;-64
2022/02/13 04:47:04;;;;;;;;;;;18.70;31.70;;;;;;5096545;28;19962;-63
2022/02/13 04:49:30;;;;;;;;;;;18.70;31.70;;;;;;5096432;28;19915;-63
2022/02/13 04:51:55;;;;;;;;;;;18.70;31.70;;;;;;5096397;28;19919;-63
2022/02/13 04:54:21;;;;;;;;;;;18.70;31.70;;;;;;5096121;28;19909;-64
2022/02/13 04:56:46;;;;;;;;;;;18.70;31.60;;;;;;5096193;28;20347;-63
2022/02/13 04:59:12;;;;;;;;;;;18.70;31.70;;;;;;5096063;28;20367;-63
2022/02/13 05:01:37;;;;;;;;;;;18.70;31.70;;;;;;5095710;28;20326;-63
2022/02/13 05:04:03;;;;;;;;;;;18.70;31.60;;;;;;5077762;28;19939;-64
2022/02/13 05:06:28;;;;;;;;;;;18.70;31.60;;;;;;5077747;28;20190;-64
2022/02/13 05:08:56;;;;;;;;;;;18.70;31.70;;;;;;5077621;28;19909;-64
2022/02/13 05:11:21;;;;;;;;;;;18.70;31.70;;;;;;5096028;28;19995;-64
2022/02/13 05:13:47;;;;;;;;;;;18.70;31.60;;;;;;5095816;28;19958;-63
2022/02/13 05:16:12;;;;;;;;;;;18.70;31.60;;;;;;5095607;28;20356;-63
2022/02/13 05:18:38;;;;;;;;;;;18.70;31.60;;;;;;5095735;28;19916;-63
2022/02/13 05:21:03;;;;;;;;;;;18.70;31.50;;;;;;5095665;28;19908;-63
2022/02/13 05:23:29;;;;;;;;;;;18.70;31.60;;;;;;5095809;28;19916;-64
2022/02/13 05:25:55;;;;;;;;;;;18.70;31.50;;;;;;5095579;28;19908;-63
2022/02/13 05:28:20;;;;;;;;;;;18.80;31.30;;;;;;5095567;28;19908;-63
2022/02/13 05:30:45;;;;;;;;;;;18.80;31.40;;;;;;5095430;28;19912;-63
2022/02/13 05:33:11;;;;;;;;;;;18.80;31.10;;;;;;5095431;28;20061;-64
2022/02/13 05:35:36;;;;;;;;;;;18.80;31.30;;;;;;5095460;28;20344;-63
2022/02/13 05:38:02;;;;;;;;;;;18.80;31.20;;;;;;5095592;28;19908;-64
2022/02/13 05:40:27;;;;;;;;;;;18.90;31.20;;;;;;5095252;28;19915;-63
2022/02/13 05:42:53;;;;;;;;;;;18.90;31.00;;;;;;5095229;28;19951;-64
2022/02/13 05:45:18;;;;;;;;;;;18.90;31.30;;;;;;5095083;28;19915;-63
2022/02/13 05:47:46;;;;;;;;;;;18.90;31.10;;;;;;5095203;28;19908;-63
2022/02/13 05:50:12;;;;;;;;;;;18.90;31.10;;;;;;5094550;28;19958;-63
2022/02/13 05:52:37;;;;;;;;;;;18.90;31.10;;;;;;5094978;28;19908;-64
2022/02/13 05:55:03;;;;;;;;;;;18.90;31.20;;;;;;5095077;28;19916;-64
2022/02/13 05:57:29;;;;;;;;;;;18.90;31.00;;;;;;5095003;28;19946;-63
2022/02/13 05:59:54;;;;;;;;;;;19.00;31.10;;;;;;5094875;28;19939;-63
2022/02/13 06:02:20;;;;;;;;;;;19.00;31.10;;;;;;5094553;28;20303;-63
2022/02/13 06:04:45;;;;;;;;;;;19.00;31.10;;;;;;5076471;28;20390;-64
2022/02/13 06:07:11;;;;;;;;;;;18.90;31.00;;;;;;5094704;28;20352;-63
2022/02/13 06:09:36;;;;;;;;;;;19.00;31.00;;;;;;5094711;28;19978;-64
2022/02/13 06:12:02;;;;;;;;;;;19.00;30.90;;;;;;5094730;28;19931;-64
2022/02/13 06:14:27;;;;;;;;;;;19.00;31.00;;;;;;5094574;28;20326;-63
2022/02/13 06:16:52;;;;;;;;;;;19.00;31.00;;;;;;5094497;28;19908;-64
2022/02/13 06:19:18;;;;;;;;;;;19.00;31.00;;;;;;5094503;28;19912;-63
2022/02/13 06:21:43;;;;;;;;;;;19.00;31.10;;;;;;5094394;28;20355;-63
2022/02/13 06:24:09;;;;;;;;;;;19.00;30.80;;;;;;5094355;28;20379;-64
2022/02/13 06:26:35;;;;;;;;;;;19.10;31.00;;;;;;5094330;28;19961;-63
2022/02/13 06:29:02;;;;;;;;;;;19.10;30.90;;;;;;5094302;28;19931;-63
2022/02/13 06:31:27;;;;;;;;;;;19.10;31.00;;;;;;5094402;28;19912;-63
2022/02/13 06:33:52;;;;;;;;;;;19.10;30.90;;;;;;5094537;28;20295;-63
2022/02/13 06:36:18;;;;;;;;;;;19.10;30.90;;;;;;5094340;28;19915;-64
2022/02/13 06:38:43;;;;;;;;;;;19.10;30.80;;;;;;5076114;28;19909;-63
2022/02/13 06:41:09;;;;;;;;;;;19.10;30.90;;;;;;5075999;28;19946;-63
2022/02/13 06:43:35;;;;;;;;;;;19.10;30.90;;;;;;5094055;28;19939;-63
2022/02/13 06:46:00;;;;;;;;;;;19.10;31.00;;;;;;5076015;28;20006;-64
2022/02/13 06:48:30;;;;;;;;;;;19.10;30.90;;;;;;5094272;28;20016;-63
2022/02/13 06:50:55;;;;;;;;;;;19.20;30.90;;;;;;5094078;28;19915;-63
2022/02/13 06:53:21;;;;;;;;;;;19.20;30.80;;;;;;5094008;28;19912;-63
2022/02/13 06:55:46;;;;;;;;;;;19.20;30.80;;;;;;5094020;28;19908;-64
2022/02/13 06:58:12;;;;;;;;;;;19.20;30.80;;;;;;5093921;28;19950;-63
2022/02/13 07:00:40;;;;;;;;;;;19.20;30.90;;;;;;5093760;28;19920;-63
2022/02/13 07:03:06;;;;;;;;;;;19.20;30.60;;;;;;5075601;28;19927;-64
2022/02/13 07:05:32;;;;;;;;;;;19.20;30.70;;;;;;5075637;28;20424;-63
2022/02/13 07:07:57;;;;;;;;;;;19.20;30.80;;;;;;5075663;28;19908;-63
2022/02/13 07:10:23;;;;;;;;;;;19.20;30.80;;;;;;5075607;28;20330;-63
2022/02/13 07:12:49;;;;;;;;;;;19.20;30.70;;;;;;5093963;28;20375;-63
2022/02/13 07:15:14;;;;;;;;;;;19.20;30.70;;;;;;5093669;28;20380;-63
2022/02/13 07:17:40;;;;;;;;;;;19.20;30.90;;;;;;5093862;28;19915;-63
2022/02/13 07:20:07;;;;;;;;;;;19.20;30.80;;;;;;5093584;28;19958;-63
2022/02/13 07:22:32;;;;;;;;;;;19.20;30.70;;;;;;5093591;28;19969;-63
2022/02/13 07:24:58;;;;;;;;;;;19.20;30.80;;;;;;5093549;28;19908;-64
2022/02/13 07:27:23;;;;;;;;;;;19.30;30.70;;;;;;5093539;28;19909;-64
2022/02/13 07:29:49;;;;;;;;;;;19.30;30.70;;;;;;5093441;28;19943;-64
2022/02/13 07:32:14;;;;;;;;;;;19.30;30.80;;;;;;5075266;28;19915;-64
2022/02/13 07:34:40;;;;;;;;;;;19.30;30.80;;;;;;5093524;28;19908;-64
2022/02/13 07:37:05;;;;;;;;;;;19.30;30.80;;;;;;5093678;28;19918;-64
2022/02/13 07:39:31;;;;;;;;;;;19.30;30.80;;;;;;5093423;28;19939;-64
2022/02/13 07:41:57;;;;;;;;;;;19.30;30.70;;;;;;5093312;28;19912;-63
2022/02/13 07:44:23;;;;;;;;;;;19.30;30.80;;;;;;5093421;28;19942;-64
2022/02/13 07:46:48;;;;;;;;;;;19.30;30.70;;;;;;5093610;28;19961;-65
2022/02/13 07:49:14;;;;;;;;;;;19.30;30.70;;;;;;5093329;28;20033;-63
2022/02/13 07:51:39;;;;;;;;;;;19.40;30.80;;;;;;5093343;28;19909;-64
2022/02/13 07:54:05;;;;;;;;;;;19.40;30.80;;;;;;5093283;28;20007;-64
2022/02/13 07:56:30;;;;;;;;;;;19.40;30.70;;;;;;5093233;28;19915;-64
2022/02/13 07:58:56;;;;;;;;;;;19.40;30.60;;;;;;5093211;28;19912;-64
2022/02/13 08:01:21;;;;;;;;;;;19.40;30.80;;;;;;5092909;28;19992;-65
2022/02/13 08:03:47;;;;;;;;;;;19.40;30.70;;;;;;5093041;28;19912;-65
2022/02/13 08:06:14;;;;;;;;;;;19.40;30.70;;;;;;5074750;28;20283;-64
2022/02/13 08:08:40;;;;;;;;;;;19.50;30.70;;;;;;5093092;28;20322;-64
2022/02/13 08:11:06;;;;;;;;;;;19.50;30.70;;;;;;5092860;28;19912;-65
2022/02/13 08:13:32;;;;;;;;;;;19.50;30.70;;;;;;5096777;28;20030;-64
2022/02/13 08:15:57;;;;;;;;;;;19.50;30.70;;;;;;5096763;28;20049;-64
2022/02/13 08:18:23;;;;;;;;;;;19.50;30.60;;;;;;5096635;28;19908;-65
2022/02/13 08:20:49;;;;;;;;;;;19.50;30.70;;;;;;5078593;28;19908;-64
2022/02/13 08:23:14;;;;;;;;;;;19.50;30.60;;;;;;5096612;28;20352;-64
2022/02/13 08:25:40;;;;;;;;;;;19.50;30.80;;;;;;5096709;28;19915;-63
2022/02/13 08:28:05;;;;;;;;;;;19.50;30.60;;;;;;5097059;28;19916;-64
2022/02/13 08:30:31;;;;;;;;;;;19.50;30.70;;;;;;5078544;28;19909;-64
2022/02/13 08:32:58;;;;;;;;;;;19.50;30.70;;;;;;5096663;28;19908;-63
2022/02/13 08:35:24;;;;;;;;;;;19.50;30.70;;;;;;5096676;28;20374;-64
2022/02/13 08:37:49;;;;;;;;;;;19.50;30.80;;;;;;5096655;28;19908;-64
2022/02/13 08:40:15;;;;;;;;;;;19.50;30.70;;;;;;5096410;28;19915;-64
2022/02/13 08:42:40;;;;;;;;;;;19.50;30.60;;;;;;5096320;28;20010;-63
2022/02/13 08:45:06;;;;;;;;;;;19.60;30.70;;;;;;5096180;28;19912;-64
2022/02/13 08:47:31;;;;;;;;;;;19.60;30.80;;;;;;5096545;28;19908;-64
2022/02/13 08:49:57;;;;;;;;;;;19.60;30.80;;;;;;5096530;28;20316;-64
2022/02/13 08:52:22;;;;;;;;;;;19.60;30.80;;;;;;5096174;28;19908;-64
2022/02/13 08:54:47;;;;;;;;;;;19.60;30.80;;;;;;5096140;28;19907;-63
2022/02/13 08:57:13;;;;;;;;;;;19.60;30.70;;;;;;5096147;28;20002;-64
2022/02/13 08:59:39;;;;;;;;;;;19.60;30.90;;;;;;5096129;28;19951;-64
2022/02/13 09:02:04;;;;;;;;;;;19.60;30.90;;;;;;5077493;28;20015;-63
2022/02/13 09:04:30;;;;;;;;;;;19.60;30.80;;;;;;5095927;28;20095;-64
2022/02/13 09:06:56;;;;;;;;;;;19.60;30.70;;;;;;5095723;28;19919;-64
2022/02/13 09:09:23;;;;;;;;;;;19.60;30.90;;;;;;5095713;28;20283;-63
2022/02/13 09:11:48;;;;;;;;;;;19.70;31.00;;;;;;5077433;28;20028;-64
2022/02/13 09:14:14;;;;;;;;;;;19.60;30.90;;;;;;5095685;28;20316;-64
2022/02/13 09:16:39;;;;;;;;;;;19.60;30.80;;;;;;5095305;28;19943;-64
2022/02/13 09:19:06;;;;;;;;;;;19.60;30.90;;;;;;5095470;28;19908;-63
2022/02/13 09:21:31;;;;;;;;;;;19.60;30.90;;;;;;5095108;28;19931;-64
2022/02/13 09:23:57;;;;;;;;;;;19.60;30.90;;;;;;5093917;28;19912;-64
2022/02/13 09:26:22;;;;;;;;;;;19.60;30.90;;;;;;5095118;28;19909;-64
2022/02/13 09:28:48;;;;;;;;;;;19.70;31.00;;;;;;5094947;28;20318;-64
2022/02/13 09:31:13;;;;;;;;;;;19.70;31.10;;;;;;5094946;28;20003;-65
2022/02/13 09:33:38;;;;;;;;;;;19.70;30.90;;;;;;5076757;28;19908;-64
2022/02/13 09:36:04;;;;;;;;;;;19.70;31.00;;;;;;5094975;28;19908;-64
2022/02/13 09:38:29;;;;;;;;;;;19.70;31.10;;;;;;5094900;28;20368;-64
2022/02/13 09:40:55;;;;;;;;;;;19.70;31.10;;;;;;5094838;28;19915;-64
2022/02/13 09:43:21;;;;;;;;;;;19.70;30.90;;;;;;5095011;28;20379;-64
2022/02/13 09:45:48;;;;;;;;;;;19.70;31.10;;;;;;5076679;28;20399;-64
2022/02/13 09:48:17;;;;;;;;;;;19.70;31.10;;;;;;5094842;28;19908;-64
2022/02/13 09:50:43;;;;;;;;;;;19.80;31.10;;;;;;5076598;28;19908;-64
2022/02/13 09:53:08;;;;;;;;;;;19.70;31.10;;;;;;5094713;28;19908;-64
2022/02/13 09:55:34;;;;;;;;;;;19.80;31.10;;;;;;5094609;28;19935;-65
2022/02/13 09:58:00;;;;;;;;;;;19.80;31.10;;;;;;5094900;28;19908;-64
2022/02/13 10:00:44;;;;;;;;;;;19.80;31.10;;;;;;5094528;28;19920;-64
2022/02/13 10:03:19;;;;;;;;;;;19.80;31.00;;;;;;5094724;28;19920;-64
2022/02/13 10:05:45;;;;;;;;;;;19.90;31.00;;;;;;5094607;28;20015;-64
2022/02/13 10:08:10;;;;;;;;;;;19.90;31.00;;;;;;5094397;28;19955;-64
2022/02/13 10:10:35;;;;;;;;;;;19.90;31.00;;;;;;5094570;28;19912;-64
2022/02/13 10:13:01;;;;;;;;;;;19.90;31.00;;;;;;5094377;28;19908;-64
2022/02/13 10:15:29;;;;;;;;;;;20.00;31.00;;;;;;5094358;28;19908;-65
2022/02/13 10:18:03;;;;;;;;;;;19.90;31.00;;;;;;5094421;28;19908;-64
2022/02/13 10:20:29;;;;;;;;;;;20.00;30.90;;;;;;5094310;28;19943;-64
2022/02/13 10:22:54;;;;;;;;;;;20.00;30.90;;;;;;5094157;28;19963;-64
2022/02/13 10:25:20;;;;;;;;;;;20.00;31.00;;;;;;5076020;28;19988;-65
2022/02/13 10:27:46;;;;;;;;;;;20.00;31.00;;;;;;5094367;28;19908;-64
2022/02/13 10:30:12;;;;;;;;;;;20.00;31.00;;;;;;5076081;28;19943;-64
2022/02/13 10:32:41;;;;;;;;;;;20.00;31.00;;;;;;5094087;28;20340;-64
2022/02/13 10:35:08;;;;;;;;;;;20.00;31.00;;;;;;5093650;28;19916;-64
2022/02/13 10:37:38;;;;;;;;;;;20.00;31.00;;;;;;5093960;28;19913;-64
2022/02/13 10:40:04;;;;;;;;;;;20.00;31.00;;;;;;5093941;28;19908;-65
2022/02/13 10:42:31;;;;;;;;;;;19.90;31.00;;;;;;5094041;28;19916;-64
2022/02/13 10:45:15;;;;;;;;;;;19.90;31.00;;;;;;5094094;28;19912;-65
2022/02/13 10:47:41;;;;;;;;;;;19.90;31.10;;;;;;5094039;28;19995;-65
2022/02/13 10:50:07;;;;;;;;;;;19.90;31.00;;;;;;5093587;28;19919;-65
2022/02/13 10:52:35;;;;;;;;;;;20.00;31.00;;;;;;5075619;28;20287;-64
2022/02/13 10:55:02;;;;;;;;;;;20.00;31.00;;;;;;5093881;28;19912;-66
2022/02/13 10:57:27;;;;;;;;;;;20.00;31.00;;;;;;5075569;28;20006;-65
2022/02/13 10:59:53;;;;;;;;;;;20.00;31.00;;;;;;5093663;28;19989;-64
2022/02/13 11:02:19;;;;;;;;;;;20.00;31.10;;;;;;5093234;28;19963;-65
2022/02/13 11:04:45;;;;;;;;;;;20.00;31.00;;;;;;5093665;28;19916;-64
2022/02/13 11:07:10;;;;;;;;;;;20.00;31.10;;;;;;5093840;28;20356;-64
2022/02/13 11:09:38;;;;;;;;;;;20.00;31.10;;;;;;5093355;28;19923;-64
2022/02/13 11:12:05;;;;;;;;;;;19.90;31.10;;;;;;5093437;28;20398;-65
2022/02/13 11:14:37;;;;;;;;;;;20.00;31.10;;;;;;5093435;28;20359;-65
2022/02/13 11:17:03;;;;;;;;;;;19.90;31.10;;;;;;5093557;28;19915;-64
2022/02/13 11:19:28;;;;;;;;;;;19.90;31.20;;;;;;5093404;28;19946;-64
2022/02/13 11:21:54;;;;;;;;;;;19.90;31.10;;;;;;5093239;28;19923;-63
2022/02/13 11:24:42;;;;;;;;;;;20.00;31.10;;;;;;5075489;28;19940;-64
2022/02/13 11:27:16;;;;;;;;;;;20.00;31.00;;;;;;5092384;28;19968;-64
2022/02/13 11:29:50;;;;;;;;;;;20.00;31.00;;;;;;5093134;28;20283;-64
2022/02/13 11:32:35;;;;;;;;;;;20.00;31.00;;;;;;5074978;28;19908;-64
2022/02/13 11:35:01;;;;;;;;;;;20.00;30.90;;;;;;5093042;28;19912;-64
2022/02/13 11:37:38;;;;;;;;;;;20.10;30.80;;;;;;5093251;28;19951;-64
2022/02/13 11:40:04;;;;;;;;;;;20.10;30.80;;;;;;5093130;28;19917;-64
2022/02/13 11:42:35;;;;;;;;;;;20.10;30.80;;;;;;5093004;28;19916;-64
2022/02/13 11:45:16;;;;;;;;;;;20.20;30.80;;;;;;5093215;28;19993;-65
2022/02/13 11:47:41;;;;;;;;;;;20.20;30.70;;;;;;5095671;28;19915;-65
2022/02/13 11:50:09;;;;;;;;;;;20.20;30.70;;;;;;5097136;28;19913;-64
2022/02/13 11:52:36;;;;;;;;;;;20.30;30.70;;;;;;5097157;28;19916;-64
2022/02/13 11:55:05;;;;;;;;;;;20.30;30.70;;;;;;5097177;28;19916;-64
2022/02/13 11:57:33;;;;;;;;;;;20.30;30.60;;;;;;5097177;28;20427;-63
2022/02/13 11:59:58;;;;;;;;;;;20.30;30.70;;;;;;5097195;28;19961;-64
2022/02/13 12:02:30;;;;;;;;;;;20.30;30.70;;;;;;5096800;28;19924;-64
2022/02/13 12:05:04;;;;;;;;;;;20.30;30.70;;;;;;5097056;28;19937;-64
2022/02/13 12:07:44;;;;;;;;;;;20.30;30.80;;;;;;5096938;28;20281;-64
2022/02/13 12:10:11;;;;;;;;;;;20.20;30.70;;;;;;5078665;28;19912;-65
2022/02/13 12:12:36;;;;;;;;;;;20.20;30.80;;;;;;5096910;28;20016;-65
2022/02/13 12:15:02;;;;;;;;;;;20.20;30.90;;;;;;5096624;28;19990;-64
2022/02/13 12:17:28;;;;;;;;;;;20.10;30.90;;;;;;5096700;28;20369;-64
2022/02/13 12:20:00;;;;;;;;;;;20.10;31.00;;;;;;5096765;28;19908;-64
2022/02/13 12:22:26;;;;;;;;;;;20.10;31.00;;;;;;5096381;28;19916;-65
2022/02/13 12:24:52;;;;;;;;;;;20.10;31.00;;;;;;5096505;28;19987;-64
2022/02/13 12:27:20;;;;;;;;;;;20.10;30.90;;;;;;5078198;28;19982;-64
2022/02/13 12:29:50;;;;;;;;;;;20.10;31.00;;;;;;5096730;28;19915;-64
2022/02/13 12:32:16;;;;;;;;;;;20.10;31.00;;;;;;5096499;28;20292;-64
2022/02/13 12:34:48;;;;;;;;;;;20.10;30.90;;;;;;5096721;28;20267;-64
2022/02/13 12:37:14;;;;;;;;;;;20.10;30.90;;;;;;5096275;28;19915;-64
2022/02/13 12:39:39;;;;;;;;;;;20.10;30.90;;;;;;5096193;28;20275;-65
2022/02/13 12:42:05;;;;;;;;;;;20.10;30.90;;;;;;5095915;28;19923;-64
2022/02/13 12:44:50;;;;;;;;;;;20.10;30.90;;;;;;5096005;28;19909;-64
2022/02/13 12:47:16;;;;;;;;;;;20.10;30.90;;;;;;5095911;28;19939;-64
2022/02/13 12:49:41;;;;;;;;;;;20.10;30.90;;;;;;5096133;28;19909;-65
2022/02/13 12:52:09;;;;;;;;;;;20.10;30.90;;;;;;5095956;28;19908;-64
2022/02/13 12:54:34;;;;;;;;;;;20.10;30.90;;;;;;5077610;28;19908;-64
2022/02/13 12:57:15;;;;;;;;;;;20.10;31.00;;;;;;5095915;28;19999;-65
2022/02/13 12:59:41;;;;;;;;;;;20.10;31.00;;;;;;5095951;28;19908;-65
2022/02/13 13:02:20;;;;;;;;;;;20.10;31.00;;;;;;5095586;28;20307;-64
2022/02/13 13:04:46;;;;;;;;;;;20.10;30.90;;;;;;5095685;28;19930;-64
2022/02/13 13:07:17;;;;;;;;;;;20.10;31.00;;;;;;5095661;28;20363;-63
2022/02/13 13:09:43;;;;;;;;;;;20.10;31.00;;;;;;5095381;28;20417;-64
2022/02/13 13:12:13;;;;;;;;;;;20.10;31.00;;;;;;5095591;28;19908;-64
2022/02/13 13:14:38;;;;;;;;;;;20.10;31.00;;;;;;5095314;28;19908;-63
2022/02/13 13:17:07;;;;;;;;;;;20.10;31.00;;;;;;5095414;28;19961;-64
2022/02/13 13:19:33;;;;;;;;;;;20.10;31.00;;;;;;5095199;28;19919;-63
2022/02/13 13:21:59;;;;;;;;;;;20.10;31.00;;;;;;5095159;28;19923;-63
2022/02/13 13:24:27;;;;;;;;;;;20.10;31.00;;;;;;5095100;28;19912;-63
2022/02/13 13:26:54;;;;;;;;;;;20.10;31.00;;;;;;5094989;28;20378;-64
2022/02/13 13:29:20;;;;;;;;;;;20.10;31.00;;;;;;5095355;28;19976;-63
2022/02/13 13:32:05;;;;;;;;;;;20.10;31.00;;;;;;5095080;28;20390;-64
2022/02/13 13:34:32;;;;;;;;;;;20.10;31.00;;;;;;5095586;28;19961;-65
2022/02/13 13:36:57;;;;;;;;;;;20.10;31.10;;;;;;5095572;28;19915;-65
2022/02/13 13:39:31;;;;;;;;;;;20.10;31.10;;;;;;5095144;28;19909;-64
2022/02/13 13:41:57;;;;;;;;;;;20.10;31.10;;;;;;5095046;28;19941;-65
2022/02/13 13:44:23;;;;;;;;;;;20.00;31.10;;;;;;5095039;28;19938;-64
2022/02/13 13:46:49;;;;;;;;;;;20.10;31.10;;;;;;5095296;28;19908;-64
2022/02/13 13:49:15;;;;;;;;;;;20.00;31.10;;;;;;5094836;28;19908;-63
2022/02/13 13:51:41;;;;;;;;;;;20.10;31.10;;;;;;5094522;28;19908;-63
2022/02/13 13:54:07;;;;;;;;;;;20.00;31.20;;;;;;5094888;28;20328;-63
2022/02/13 13:56:32;;;;;;;;;;;20.00;31.10;;;;;;5094912;28;20008;-63
2022/02/13 13:58:58;;;;;;;;;;;20.00;31.10;;;;;;5094784;28;20316;-63
2022/02/13 14:01:23;;;;;;;;;;;20.00;31.20;;;;;;5094498;28;19927;-64
2022/02/13 14:03:49;;;;;;;;;;;20.00;31.20;;;;;;5076232;28;19923;-64
2022/02/13 14:06:14;;;;;;;;;;;20.00;31.20;;;;;;5094539;28;19994;-64
2022/02/13 14:08:40;;;;;;;;;;;20.00;31.20;;;;;;5094542;28;20408;-64
2022/02/13 14:11:05;;;;;;;;;;;20.00;31.20;;;;;;5093608;28;20363;-64